Lizemores, West Virginia
Current Conditions -  °F | °C
As of 6:54 AM on Sunday 25 Jan 2015 (Local Time) from KCRW Reporting Station
Few Clouds Few Clouds  
Wind Chill: 31°   Ceiling: Unl
Heat Index: 31°   Visibility: 7mi
Dew Point: 28°   Wind: 0mph
Humidity: 89%   Direction: NA
Pressure: 29.81"   Gusts: NA
Location:  38.33°N, 81.18°W
Report Text: KCRW 251154Z 00000KT 7SM FEW170 M01/M02 A2981 RMK AO2 SLP101 70004 T10061022 10017 21006 55004
Loading
Personal Weather Stations






























Interactive Weather Map New forecast layout! Learn more

10-Day Weather Forecast

Advertisements
Track Severe Weather on mobile